EDLP/PAD METAR and TAF weather

Enter ICAO airport designator
Station Type Date Time Source
EDLP METAR 2019/06/18 13:20 UTC NOAA

EDLP 181320Z VRB03KT CAVOK 28/13 Q1014


Station Type Date Time Source
EDLP Decoded METAR 2019/06/18 13:20 UTC NOAA

Paderborn / Lippstadt, Germany (EDLP) 51-37N 008-37E
Jun 18, 2019 - 09:20 AM EDT / 2019.06.18 1320 UTC
Wind: Variable at 3 MPH (3 KT):0
Visibility: greater than 7 mile(s):0
Temperature: 82 F (28 C)
Dew Point: 55 F (13 C)
Relative Humidity: 39%
Pressure (altimeter): 29.94 in. Hg (1014 hPa)
ob: EDLP 181320Z VRB03KT CAVOK 28/13 Q1014
cycle: 13

Station Type Date Time Source
EDLP TAF 2019/06/18 12:27 UTC NOAA

TAF EDLP 181100Z 1812/1912 14006KT CAVOK
BECMG 1813/1816 VRB03KT PROB30
TEMPO 1813/1819 SHRA BKN040CB
BECMG 1820/1822 15006KT
BECMG 1906/1909 21008KT

Example: see airport list